sensor_id;sensor_type;location;lat;lon;timestamp;pressure;altitude;pressure_sealevel;temperature;humidity
5753;BME280;2901;42.140;24.760;2022-07-18T00:00:57;99919.91;;;24.33;39.55
5753;BME280;2901;42.140;24.760;2022-07-18T00:03:23;99917.25;;;24.33;38.98
5753;BME280;2901;42.140;24.760;2022-07-18T00:05:48;99913.63;;;24.34;39.34
5753;BME280;2901;42.140;24.760;2022-07-18T00:08:14;99929.78;;;24.30;38.57
5753;BME280;2901;42.140;24.760;2022-07-18T00:10:39;99922.03;;;24.26;38.49
5753;BME280;2901;42.140;24.760;2022-07-18T00:13:04;99929.19;;;24.24;38.71
5753;BME280;2901;42.140;24.760;2022-07-18T00:15:30;99919.81;;;24.19;37.73
5753;BME280;2901;42.140;24.760;2022-07-18T00:17:55;99931.50;;;24.15;37.64
5753;BME280;2901;42.140;24.760;2022-07-18T00:20:21;99933.97;;;24.18;37.32
5753;BME280;2901;42.140;24.760;2022-07-18T00:22:46;99935.19;;;24.11;36.84
5753;BME280;2901;42.140;24.760;2022-07-18T00:25:11;99934.50;;;24.07;36.85
5753;BME280;2901;42.140;24.760;2022-07-18T00:27:37;99934.84;;;24.01;36.62
5753;BME280;2901;42.140;24.760;2022-07-18T00:30:04;99934.09;;;23.99;37.00
5753;BME280;2901;42.140;24.760;2022-07-18T00:32:29;99938.69;;;23.96;36.55
5753;BME280;2901;42.140;24.760;2022-07-18T00:34:55;99927.59;;;23.89;35.80
5753;BME280;2901;42.140;24.760;2022-07-18T00:37:20;99935.00;;;23.83;35.65
5753;BME280;2901;42.140;24.760;2022-07-18T00:39:46;99939.94;;;23.73;35.60
5753;BME280;2901;42.140;24.760;2022-07-18T00:42:11;99940.16;;;23.68;35.54
5753;BME280;2901;42.140;24.760;2022-07-18T00:44:36;99931.97;;;23.57;35.64
5753;BME280;2901;42.140;24.760;2022-07-18T00:47:02;99933.91;;;23.54;34.89
5753;BME280;2901;42.140;24.760;2022-07-18T00:49:28;99941.16;;;23.50;34.58
5753;BME280;2901;42.140;24.760;2022-07-18T00:51:54;99935.22;;;23.45;34.44
5753;BME280;2901;42.140;24.760;2022-07-18T00:54:20;99937.00;;;23.45;34.43
5753;BME280;2901;42.140;24.760;2022-07-18T00:56:47;99940.81;;;23.39;34.53
5753;BME280;2901;42.140;24.760;2022-07-18T00:59:14;99942.59;;;23.39;34.44
5753;BME280;2901;42.140;24.760;2022-07-18T01:01:39;99939.09;;;23.38;34.78
5753;BME280;2901;42.140;24.760;2022-07-18T01:04:16;99950.94;;;23.31;34.15
5753;BME280;2901;42.140;24.760;2022-07-18T01:06:42;99945.13;;;23.24;34.11
5753;BME280;2901;42.140;24.760;2022-07-18T01:09:07;99947.97;;;23.20;34.24
5753;BME280;2901;42.140;24.760;2022-07-18T01:11:34;99944.63;;;23.16;34.03
5753;BME280;2901;42.140;24.760;2022-07-18T01:14:05;99952.78;;;23.12;33.69
5753;BME280;2901;42.140;24.760;2022-07-18T01:16:31;99949.31;;;23.11;34.16
5753;BME280;2901;42.140;24.760;2022-07-18T01:18:57;99949.47;;;23.08;34.32
5753;BME280;2901;42.140;24.760;2022-07-18T01:21:22;99955.91;;;23.03;34.32
5753;BME280;2901;42.140;24.760;2022-07-18T01:23:48;99952.69;;;22.96;34.25
5753;BME280;2901;42.140;24.760;2022-07-18T01:26:14;99951.84;;;22.96;34.28
5753;BME280;2901;42.140;24.760;2022-07-18T01:28:41;99943.16;;;22.94;34.85
5753;BME280;2901;42.140;24.760;2022-07-18T01:31:07;99948.66;;;22.89;34.64
5753;BME280;2901;42.140;24.760;2022-07-18T01:33:33;99944.38;;;22.87;34.91
5753;BME280;2901;42.140;24.760;2022-07-18T01:36:00;99944.53;;;22.84;34.55
5753;BME280;2901;42.140;24.760;2022-07-18T01:38:28;99953.22;;;22.86;34.72
5753;BME280;2901;42.140;24.760;2022-07-18T01:40:54;99938.75;;;22.75;35.13
5753;BME280;2901;42.140;24.760;2022-07-18T01:43:21;99958.03;;;22.78;35.27
5753;BME280;2901;42.140;24.760;2022-07-18T01:45:46;99950.19;;;22.76;35.35
5753;BME280;2901;42.140;24.760;2022-07-18T01:48:11;99950.34;;;22.73;35.61
5753;BME280;2901;42.140;24.760;2022-07-18T01:50:37;99953.41;;;22.64;36.13
5753;BME280;2901;42.140;24.760;2022-07-18T01:53:02;99950.81;;;22.62;36.52
5753;BME280;2901;42.140;24.760;2022-07-18T01:55:28;99959.03;;;22.56;37.12
5753;BME280;2901;42.140;24.760;2022-07-18T01:57:53;99958.41;;;22.51;37.58
5753;BME280;2901;42.140;24.760;2022-07-18T02:00:19;99964.72;;;22.49;37.58
5753;BME280;2901;42.140;24.760;2022-07-18T02:02:44;99961.41;;;22.44;37.69
5753;BME280;2901;42.140;24.760;2022-07-18T02:05:09;99964.84;;;22.46;37.92
5753;BME280;2901;42.140;24.760;2022-07-18T02:07:40;99958.94;;;22.41;37.99
5753;BME280;2901;42.140;24.760;2022-07-18T02:10:12;99963.50;;;22.37;38.14
5753;BME280;2901;42.140;24.760;2022-07-18T02:12:38;99963.72;;;22.33;38.12
5753;BME280;2901;42.140;24.760;2022-07-18T02:15:05;99973.56;;;22.29;38.55
5753;BME280;2901;42.140;24.760;2022-07-18T02:17:31;99968.50;;;22.24;38.45
5753;BME280;2901;42.140;24.760;2022-07-18T02:19:57;99965.13;;;22.21;38.92
5753;BME280;2901;42.140;24.760;2022-07-18T02:22:22;99979.25;;;22.20;39.13
5753;BME280;2901;42.140;24.760;2022-07-18T02:24:49;99976.69;;;22.18;39.84
5753;BME280;2901;42.140;24.760;2022-07-18T02:27:14;99967.34;;;22.11;40.61
5753;BME280;2901;42.140;24.760;2022-07-18T02:29:40;99971.56;;;22.15;40.68
5753;BME280;2901;42.140;24.760;2022-07-18T02:32:05;99983.91;;;22.15;40.84
5753;BME280;2901;42.140;24.760;2022-07-18T02:34:31;99981.53;;;22.09;41.10
5753;BME280;2901;42.140;24.760;2022-07-18T02:36:57;99968.16;;;21.93;41.08
5753;BME280;2901;42.140;24.760;2022-07-18T02:39:22;99994.94;;;22.04;40.71
5753;BME280;2901;42.140;24.760;2022-07-18T02:41:48;99996.72;;;22.04;41.17
5753;BME280;2901;42.140;24.760;2022-07-18T02:44:13;99988.50;;;21.91;41.52
5753;BME280;2901;42.140;24.760;2022-07-18T02:46:39;99984.19;;;21.89;41.85
5753;BME280;2901;42.140;24.760;2022-07-18T02:49:05;99991.38;;;21.85;41.87
5753;BME280;2901;42.140;24.760;2022-07-18T02:51:30;99995.16;;;21.80;42.21
5753;BME280;2901;42.140;24.760;2022-07-18T02:53:56;99995.16;;;21.80;42.12
5753;BME280;2901;42.140;24.760;2022-07-18T02:56:21;100001.19;;;21.82;42.46
5753;BME280;2901;42.140;24.760;2022-07-18T02:58:47;99992.00;;;21.71;42.61
5753;BME280;2901;42.140;24.760;2022-07-18T03:01:12;99996.41;;;21.71;42.42
5753;BME280;2901;42.140;24.760;2022-07-18T03:03:38;99991.13;;;21.71;42.33
5753;BME280;2901;42.140;24.760;2022-07-18T03:06:03;99995.34;;;21.75;41.59
5753;BME280;2901;42.140;24.760;2022-07-18T03:08:29;99994.56;;;21.73;41.00
5753;BME280;2901;42.140;24.760;2022-07-18T03:10:55;99997.06;;;21.76;40.96
5753;BME280;2901;42.140;24.760;2022-07-18T03:13:20;99995.00;;;21.83;40.34
5753;BME280;2901;42.140;24.760;2022-07-18T03:15:45;99982.75;;;21.82;40.19
5753;BME280;2901;42.140;24.760;2022-07-18T03:18:11;99993.00;;;21.88;40.40
5753;BME280;2901;42.140;24.760;2022-07-18T03:20:36;99998.91;;;21.94;40.07
5753;BME280;2901;42.140;24.760;2022-07-18T03:23:06;100001.41;;;21.97;39.50
5753;BME280;2901;42.140;24.760;2022-07-18T03:25:32;99995.94;;;22.02;39.08
5753;BME280;2901;42.140;24.760;2022-07-18T03:27:57;99991.38;;;22.05;38.68
5753;BME280;2901;42.140;24.760;2022-07-18T03:30:23;99974.97;;;21.99;38.72
5753;BME280;2901;42.140;24.760;2022-07-18T03:32:48;99995.50;;;22.11;38.71
5753;BME280;2901;42.140;24.760;2022-07-18T03:35:14;99995.50;;;22.11;38.17
5753;BME280;2901;42.140;24.760;2022-07-18T03:37:39;99998.56;;;22.20;38.20
5753;BME280;2901;42.140;24.760;2022-07-18T03:40:05;100004.66;;;22.22;37.43
5753;BME280;2901;42.140;24.760;2022-07-18T03:42:31;100004.28;;;22.30;37.77
5753;BME280;2901;42.140;24.760;2022-07-18T03:44:56;100001.59;;;22.32;37.48
5753;BME280;2901;42.140;24.760;2022-07-18T03:47:21;100008.50;;;22.34;37.53
5753;BME280;2901;42.140;24.760;2022-07-18T03:49:47;100005.66;;;22.39;37.37
5753;BME280;2901;42.140;24.760;2022-07-18T03:52:12;100009.06;;;22.41;37.29
5753;BME280;2901;42.140;24.760;2022-07-18T03:54:38;100007.28;;;22.41;37.29
5753;BME280;2901;42.140;24.760;2022-07-18T03:57:03;100011.56;;;22.44;37.05
5753;BME280;2901;42.140;24.760;2022-07-18T03:59:28;100016.06;;;22.42;36.72
5753;BME280;2901;42.140;24.760;2022-07-18T04:01:54;100010.66;;;22.45;37.23
5753;BME280;2901;42.140;24.760;2022-07-18T04:04:19;100031.75;;;22.45;36.84
5753;BME280;2901;42.140;24.760;2022-07-18T04:06:46;100030.69;;;22.49;36.80
5753;BME280;2901;42.140;24.760;2022-07-18T04:09:12;100023.84;;;22.45;36.57
5753;BME280;2901;42.140;24.760;2022-07-18T04:11:37;100027.25;;;22.47;36.98
5753;BME280;2901;42.140;24.760;2022-07-18T04:14:03;100024.41;;;22.51;36.96
5753;BME280;2901;42.140;24.760;2022-07-18T04:16:28;100005.22;;;22.48;36.58
5753;BME280;2901;42.140;24.760;2022-07-18T04:18:54;100006.72;;;22.53;36.04
5753;BME280;2901;42.140;24.760;2022-07-18T04:21:19;100017.84;;;22.60;35.15
5753;BME280;2901;42.140;24.760;2022-07-18T04:23:44;100020.47;;;22.60;35.22
5753;BME280;2901;42.140;24.760;2022-07-18T04:26:10;100023.66;;;22.68;35.42
5753;BME280;2901;42.140;24.760;2022-07-18T04:28:35;100017.22;;;22.73;35.08
5753;BME280;2901;42.140;24.760;2022-07-18T04:31:02;100025.91;;;22.75;34.92
5753;BME280;2901;42.140;24.760;2022-07-18T04:33:28;100028.19;;;22.83;35.35
5753;BME280;2901;42.140;24.760;2022-07-18T04:35:53;100021.63;;;22.92;34.93
5753;BME280;2901;42.140;24.760;2022-07-18T04:38:18;100039.25;;;22.91;34.57
5753;BME280;2901;42.140;24.760;2022-07-18T04:40:44;100031.19;;;22.94;34.63
5753;BME280;2901;42.140;24.760;2022-07-18T04:43:09;100044.03;;;23.02;33.99
5753;BME280;2901;42.140;24.760;2022-07-18T04:45:35;100047.59;;;23.01;34.39
5753;BME280;2901;42.140;24.760;2022-07-18T04:48:02;100042.91;;;23.06;33.96
5753;BME280;2901;42.140;24.760;2022-07-18T04:50:27;100043.41;;;23.14;33.92
5753;BME280;2901;42.140;24.760;2022-07-18T04:52:55;100049.72;;;23.11;33.70
5753;BME280;2901;42.140;24.760;2022-07-18T04:55:21;100063.91;;;23.09;34.26
5753;BME280;2901;42.140;24.760;2022-07-18T04:57:48;100056.69;;;22.95;34.06
5753;BME280;2901;42.140;24.760;2022-07-18T05:00:20;100067.72;;;23.03;34.30
5753;BME280;2901;42.140;24.760;2022-07-18T05:02:48;100055.72;;;22.96;34.36
5753;BME280;2901;42.140;24.760;2022-07-18T05:05:16;100073.28;;;22.97;34.35
5753;BME280;2901;42.140;24.760;2022-07-18T05:07:43;100076.56;;;23.02;33.86
5753;BME280;2901;42.140;24.760;2022-07-18T05:10:10;100076.72;;;22.99;34.59
5753;BME280;2901;42.140;24.760;2022-07-18T05:12:37;100060.44;;;22.90;34.54
5753;BME280;2901;42.140;24.760;2022-07-18T05:15:07;100077.72;;;22.97;34.45
5753;BME280;2901;42.140;24.760;2022-07-18T05:17:33;100084.56;;;23.01;34.94
5753;BME280;2901;42.140;24.760;2022-07-18T05:19:59;100077.56;;;23.00;34.54
5753;BME280;2901;42.140;24.760;2022-07-18T05:22:24;100082.50;;;23.07;35.06
5753;BME280;2901;42.140;24.760;2022-07-18T05:24:50;100083.81;;;23.16;35.07
5753;BME280;2901;42.140;24.760;2022-07-18T05:27:16;100084.16;;;23.27;34.63
5753;BME280;2901;42.140;24.760;2022-07-18T05:29:41;100072.63;;;23.11;34.63
5753;BME280;2901;42.140;24.760;2022-07-18T05:32:07;100084.69;;;23.16;35.07
5753;BME280;2901;42.140;24.760;2022-07-18T05:34:33;100083.38;;;23.25;34.72
5753;BME280;2901;42.140;24.760;2022-07-18T05:36:58;100077.41;;;23.21;35.00
5753;BME280;2901;42.140;24.760;2022-07-18T05:39:23;100075.94;;;23.33;34.26
5753;BME280;2901;42.140;24.760;2022-07-18T05:41:49;100073.13;;;23.36;34.67
5753;BME280;2901;42.140;24.760;2022-07-18T05:44:14;100074.72;;;23.40;34.67
5753;BME280;2901;42.140;24.760;2022-07-18T05:46:40;100070.75;;;23.49;35.10
5753;BME280;2901;42.140;24.760;2022-07-18T05:49:05;100061.03;;;23.49;34.75
5753;BME280;2901;42.140;24.760;2022-07-18T05:51:31;100069.91;;;23.48;34.15
5753;BME280;2901;42.140;24.760;2022-07-18T05:53:56;100069.63;;;23.54;34.15
5753;BME280;2901;42.140;24.760;2022-07-18T05:56:21;100059.66;;;23.59;34.32
5753;BME280;2901;42.140;24.760;2022-07-18T05:58:47;100055.94;;;23.63;34.25
5753;BME280;2901;42.140;24.760;2022-07-18T06:01:12;100049.13;;;23.58;34.09
5753;BME280;2901;42.140;24.760;2022-07-18T06:03:42;100052.47;;;23.61;34.62
5753;BME280;2901;42.140;24.760;2022-07-18T06:06:07;100033.97;;;23.61;34.73
5753;BME280;2901;42.140;24.760;2022-07-18T06:08:33;100047.59;;;23.71;35.10
5753;BME280;2901;42.140;24.760;2022-07-18T06:10:58;100043.94;;;23.73;34.95
5753;BME280;2901;42.140;24.760;2022-07-18T06:13:24;100039.88;;;23.84;34.94
5753;BME280;2901;42.140;24.760;2022-07-18T06:15:49;100045.94;;;23.86;35.35
5753;BME280;2901;42.140;24.760;2022-07-18T06:18:14;100045.97;;;24.01;34.39
5753;BME280;2901;42.140;24.760;2022-07-18T06:20:40;100052.06;;;24.03;35.03
5753;BME280;2901;42.140;24.760;2022-07-18T06:23:05;100040.84;;;24.15;35.37
5753;BME280;2901;42.140;24.760;2022-07-18T06:25:31;100045.47;;;24.12;34.54
5753;BME280;2901;42.140;24.760;2022-07-18T06:27:56;100056.03;;;24.12;34.75
5753;BME280;2901;42.140;24.760;2022-07-18T06:30:21;100040.28;;;24.09;34.89
5753;BME280;2901;42.140;24.760;2022-07-18T06:32:48;100058.81;;;24.09;35.96
5753;BME280;2901;42.140;24.760;2022-07-18T06:35:13;100048.31;;;24.07;34.62
5753;BME280;2901;42.140;24.760;2022-07-18T06:37:39;100043.88;;;24.08;35.02
5753;BME280;2901;42.140;24.760;2022-07-18T06:40:05;100049.41;;;24.20;35.59
5753;BME280;2901;42.140;24.760;2022-07-18T06:42:31;100048.41;;;24.39;34.49
5753;BME280;2901;42.140;24.760;2022-07-18T06:44:56;100048.78;;;24.48;34.61
5753;BME280;2901;42.140;24.760;2022-07-18T06:47:22;100059.81;;;24.56;34.18
5753;BME280;2901;42.140;24.760;2022-07-18T06:49:47;100059.72;;;24.58;33.73
5753;BME280;2901;42.140;24.760;2022-07-18T06:52:13;100065.88;;;24.58;33.79
5753;BME280;2901;42.140;24.760;2022-07-18T06:54:41;100052.91;;;24.69;33.76
5753;BME280;2901;42.140;24.760;2022-07-18T06:57:06;100055.03;;;24.78;32.29
5753;BME280;2901;42.140;24.760;2022-07-18T06:59:35;100055.78;;;24.80;32.42
5753;BME280;2901;42.140;24.760;2022-07-18T07:02:01;100053.69;;;24.87;32.60
5753;BME280;2901;42.140;24.760;2022-07-18T07:04:26;100054.13;;;24.95;31.82
5753;BME280;2901;42.140;24.760;2022-07-18T07:06:52;100051.13;;;25.01;31.78
5753;BME280;2901;42.140;24.760;2022-07-18T07:09:17;100045.97;;;25.14;32.17
5753;BME280;2901;42.140;24.760;2022-07-18T07:11:43;100042.59;;;25.26;31.88
5753;BME280;2901;42.140;24.760;2022-07-18T07:14:08;100053.19;;;25.42;31.97
5753;BME280;2901;42.140;24.760;2022-07-18T07:16:34;100046.44;;;25.52;31.86
5753;BME280;2901;42.140;24.760;2022-07-18T07:18:59;100051.00;;;25.64;31.66
5753;BME280;2901;42.140;24.760;2022-07-18T07:21:25;100052.78;;;25.63;30.40
5753;BME280;2901;42.140;24.760;2022-07-18T07:23:51;100035.28;;;25.61;31.48
5753;BME280;2901;42.140;24.760;2022-07-18T07:26:16;100041.25;;;25.78;31.87
5753;BME280;2901;42.140;24.760;2022-07-18T07:28:42;100041.66;;;25.87;31.58
5753;BME280;2901;42.140;24.760;2022-07-18T07:31:07;100046.31;;;25.97;31.74
5753;BME280;2901;42.140;24.760;2022-07-18T07:33:33;100049.38;;;26.19;30.74
5753;BME280;2901;42.140;24.760;2022-07-18T07:35:59;100042.75;;;26.26;31.56
5753;BME280;2901;42.140;24.760;2022-07-18T07:38:25;100044.75;;;26.37;30.41
5753;BME280;2901;42.140;24.760;2022-07-18T07:40:54;100045.97;;;26.31;29.82
5753;BME280;2901;42.140;24.760;2022-07-18T07:43:19;100048.72;;;26.30;29.43
5753;BME280;2901;42.140;24.760;2022-07-18T07:45:48;100038.78;;;26.34;30.63
5753;BME280;2901;42.140;24.760;2022-07-18T07:48:15;100038.84;;;26.46;28.49
5753;BME280;2901;42.140;24.760;2022-07-18T07:50:40;100038.47;;;26.52;28.76
5753;BME280;2901;42.140;24.760;2022-07-18T07:53:07;100045.47;;;26.67;29.57
5753;BME280;2901;42.140;24.760;2022-07-18T07:55:32;100033.03;;;26.82;29.95
5753;BME280;2901;42.140;24.760;2022-07-18T07:57:58;100038.06;;;26.87;28.83
5753;BME280;2901;42.140;24.760;2022-07-18T08:00:24;100042.50;;;26.86;28.41
5753;BME280;2901;42.140;24.760;2022-07-18T08:02:54;100046.56;;;26.92;28.12
5753;BME280;2901;42.140;24.760;2022-07-18T08:05:20;100038.56;;;27.06;28.35
5753;BME280;2901;42.140;24.760;2022-07-18T08:07:46;100041.03;;;27.21;27.72
5753;BME280;2901;42.140;24.760;2022-07-18T08:10:12;100040.66;;;27.40;27.14
5753;BME280;2901;42.140;24.760;2022-07-18T08:12:37;100037.03;;;27.55;26.77
5753;BME280;2901;42.140;24.760;2022-07-18T08:15:03;100040.75;;;27.53;26.91
5753;BME280;2901;42.140;24.760;2022-07-18T08:17:28;100040.00;;;27.63;27.06
5753;BME280;2901;42.140;24.760;2022-07-18T08:19:54;100039.41;;;27.72;26.43
5753;BME280;2901;42.140;24.760;2022-07-18T08:22:19;100028.84;;;27.83;26.61
5753;BME280;2901;42.140;24.760;2022-07-18T08:24:45;100032.69;;;27.92;25.75
5753;BME280;2901;42.140;24.760;2022-07-18T08:27:10;100030.00;;;27.79;25.17
5753;BME280;2901;42.140;24.760;2022-07-18T08:29:36;100030.00;;;27.79;26.10
5753;BME280;2901;42.140;24.760;2022-07-18T08:32:02;100031.72;;;27.93;26.11
5753;BME280;2901;42.140;24.760;2022-07-18T08:34:27;100032.63;;;28.19;25.42
5753;BME280;2901;42.140;24.760;2022-07-18T08:36:53;100030.78;;;28.32;25.30
5753;BME280;2901;42.140;24.760;2022-07-18T08:39:18;100034.38;;;28.44;25.32
5753;BME280;2901;42.140;24.760;2022-07-18T08:41:44;100039.38;;;28.35;25.77
5753;BME280;2901;42.140;24.760;2022-07-18T08:44:12;100038.63;;;28.46;26.04
5753;BME280;2901;42.140;24.760;2022-07-18T08:46:39;100036.78;;;28.59;25.74
5753;BME280;2901;42.140;24.760;2022-07-18T08:49:06;100033.59;;;28.67;25.64
5753;BME280;2901;42.140;24.760;2022-07-18T08:51:34;100035.81;;;28.60;24.77
5753;BME280;2901;42.140;24.760;2022-07-18T08:54:01;100035.31;;;28.68;25.52
5753;BME280;2901;42.140;24.760;2022-07-18T08:56:27;100035.19;;;28.69;25.41
5753;BME280;2901;42.140;24.760;2022-07-18T08:58:52;100031.41;;;28.84;26.03
5753;BME280;2901;42.140;24.760;2022-07-18T09:01:18;100030.59;;;28.95;25.12
5753;BME280;2901;42.140;24.760;2022-07-18T09:03:43;100029.50;;;29.10;25.20
5753;BME280;2901;42.140;24.760;2022-07-18T09:06:11;100031.13;;;29.24;25.51
5753;BME280;2901;42.140;24.760;2022-07-18T09:08:38;100031.88;;;29.26;25.30
5753;BME280;2901;42.140;24.760;2022-07-18T09:11:08;100030.25;;;29.36;25.65
5753;BME280;2901;42.140;24.760;2022-07-18T09:16:00;100025.00;;;29.34;26.12
5753;BME280;2901;42.140;24.760;2022-07-18T09:18:47;100041.97;;;29.57;25.58
5753;BME280;2901;42.140;24.760;2022-07-18T09:21:20;100026.56;;;29.72;24.68
5753;BME280;2901;42.140;24.760;2022-07-18T09:23:48;100028.91;;;29.76;24.78
5753;BME280;2901;42.140;24.760;2022-07-18T09:26:34;100035.69;;;29.80;24.38
5753;BME280;2901;42.140;24.760;2022-07-18T09:29:02;100034.50;;;29.84;24.20
5753;BME280;2901;42.140;24.760;2022-07-18T09:31:28;100026.66;;;29.59;25.37
5753;BME280;2901;42.140;24.760;2022-07-18T09:33:59;100035.50;;;29.49;25.61
5753;BME280;2901;42.140;24.760;2022-07-18T09:36:26;100032.66;;;29.39;24.98
5753;BME280;2901;42.140;24.760;2022-07-18T09:38:51;100034.09;;;29.32;25.32
5753;BME280;2901;42.140;24.760;2022-07-18T09:41:23;100024.44;;;29.42;25.11
5753;BME280;2901;42.140;24.760;2022-07-18T09:43:48;100028.03;;;29.30;25.26
5753;BME280;2901;42.140;24.760;2022-07-18T09:46:14;100031.25;;;29.46;25.49
5753;BME280;2901;42.140;24.760;2022-07-18T09:48:39;100026.63;;;29.48;25.58
5753;BME280;2901;42.140;24.760;2022-07-18T09:51:06;100012.75;;;29.67;25.53
5753;BME280;2901;42.140;24.760;2022-07-18T09:53:35;100031.75;;;29.86;24.67
5753;BME280;2901;42.140;24.760;2022-07-18T09:56:11;100023.84;;;30.07;24.55
5753;BME280;2901;42.140;24.760;2022-07-18T09:59:03;100020.00;;;30.33;24.12
5753;BME280;2901;42.140;24.760;2022-07-18T10:01:28;100017.56;;;30.41;24.36
5753;BME280;2901;42.140;24.760;2022-07-18T10:03:55;100017.19;;;30.57;24.10
5753;BME280;2901;42.140;24.760;2022-07-18T10:06:21;100020.34;;;30.62;23.90
5753;BME280;2901;42.140;24.760;2022-07-18T10:08:48;100012.63;;;30.79;24.42
5753;BME280;2901;42.140;24.760;2022-07-18T10:11:14;100011.03;;;30.99;23.53
5753;BME280;2901;42.140;24.760;2022-07-18T10:13:39;99997.97;;;31.17;23.30
5753;BME280;2901;42.140;24.760;2022-07-18T10:16:05;99992.50;;;31.18;23.63
5753;BME280;2901;42.140;24.760;2022-07-18T10:18:32;99994.25;;;31.29;23.83
5753;BME280;2901;42.140;24.760;2022-07-18T10:21:09;100002.16;;;31.30;23.95
5753;BME280;2901;42.140;24.760;2022-07-18T10:31:32;99980.91;;;31.38;24.41
5753;BME280;2901;42.140;24.760;2022-07-18T10:36:40;99970.09;;;31.40;24.57
5753;BME280;2901;42.140;24.760;2022-07-18T11:16:08;99952.38;;;31.07;26.34
5753;BME280;2901;42.140;24.760;2022-07-18T11:23:46;99943.53;;;31.48;25.86
5753;BME280;2901;42.140;24.760;2022-07-18T11:26:19;99950.97;;;31.65;25.30
5753;BME280;2901;42.140;24.760;2022-07-18T11:28:49;99935.84;;;31.85;25.31
5753;BME280;2901;42.140;24.760;2022-07-18T11:31:21;99932.22;;;31.96;25.40
5753;BME280;2901;42.140;24.760;2022-07-18T11:33:48;99933.06;;;32.17;25.87
5753;BME280;2901;42.140;24.760;2022-07-18T11:36:18;99940.41;;;32.34;25.36
5753;BME280;2901;42.140;24.760;2022-07-18T11:38:49;99931.19;;;32.57;24.94
5753;BME280;2901;42.140;24.760;2022-07-18T11:41:15;99925.28;;;32.73;24.62
5753;BME280;2901;42.140;24.760;2022-07-18T11:43:43;99929.50;;;32.85;24.88
5753;BME280;2901;42.140;24.760;2022-07-18T11:46:12;99930.09;;;32.98;25.60
5753;BME280;2901;42.140;24.760;2022-07-18T11:48:38;99915.53;;;32.91;24.19
5753;BME280;2901;42.140;24.760;2022-07-18T11:51:18;99914.56;;;32.82;24.64
5753;BME280;2901;42.140;24.760;2022-07-18T11:53:51;99909.31;;;32.71;25.00
5753;BME280;2901;42.140;24.760;2022-07-18T11:56:18;99914.41;;;32.65;25.87
5753;BME280;2901;42.140;24.760;2022-07-18T11:58:44;99907.19;;;32.65;25.41
5753;BME280;2901;42.140;24.760;2022-07-18T12:01:11;99909.03;;;32.74;24.76
5753;BME280;2901;42.140;24.760;2022-07-18T12:03:40;99906.34;;;32.74;25.38
5753;BME280;2901;42.140;24.760;2022-07-18T12:06:19;99905.50;;;32.64;24.78
5753;BME280;2901;42.140;24.760;2022-07-18T12:08:46;99903.03;;;32.42;25.10
5753;BME280;2901;42.140;24.760;2022-07-18T12:11:16;99900.75;;;32.28;25.03
5753;BME280;2901;42.140;24.760;2022-07-18T12:13:53;99899.09;;;32.46;25.27
5753;BME280;2901;42.140;24.760;2022-07-18T12:18:55;99892.50;;;32.88;24.70
5753;BME280;2901;42.140;24.760;2022-07-18T12:21:21;99891.81;;;33.15;23.79
5753;BME280;2901;42.140;24.760;2022-07-18T12:23:47;99893.91;;;33.31;24.28
5753;BME280;2901;42.140;24.760;2022-07-18T12:26:33;99888.94;;;33.46;23.99
5753;BME280;2901;42.140;24.760;2022-07-18T12:29:06;99884.94;;;33.50;23.61
5753;BME280;2901;42.140;24.760;2022-07-18T12:31:45;99886.34;;;33.63;24.06
5753;BME280;2901;42.140;24.760;2022-07-18T12:34:15;99883.00;;;33.79;24.08
5753;BME280;2901;42.140;24.760;2022-07-18T12:36:55;99884.47;;;33.73;24.44
5753;BME280;2901;42.140;24.760;2022-07-18T12:39:32;99872.75;;;33.65;24.24
5753;BME280;2901;42.140;24.760;2022-07-18T12:42:00;99886.72;;;33.78;24.36
5753;BME280;2901;42.140;24.760;2022-07-18T12:44:29;99864.63;;;33.84;24.74
5753;BME280;2901;42.140;24.760;2022-07-18T12:46:55;99873.06;;;33.89;25.05
5753;BME280;2901;42.140;24.760;2022-07-18T12:49:21;99864.19;;;33.88;25.62
5753;BME280;2901;42.140;24.760;2022-07-18T12:51:47;99873.03;;;33.71;25.13
5753;BME280;2901;42.140;24.760;2022-07-18T12:54:13;99868.81;;;33.50;25.60
5753;BME280;2901;42.140;24.760;2022-07-18T12:56:39;99863.84;;;33.64;25.80
5753;BME280;2901;42.140;24.760;2022-07-18T12:59:04;99864.88;;;33.90;25.53
5753;BME280;2901;42.140;24.760;2022-07-18T13:01:31;99856.50;;;33.94;25.27
5753;BME280;2901;42.140;24.760;2022-07-18T13:03:56;99860.34;;;34.09;25.44
5753;BME280;2901;42.140;24.760;2022-07-18T13:06:22;99864.38;;;34.05;25.58
5753;BME280;2901;42.140;24.760;2022-07-18T13:08:47;99855.31;;;33.78;25.53
5753;BME280;2901;42.140;24.760;2022-07-18T13:11:13;99856.19;;;33.97;25.58
5753;BME280;2901;42.140;24.760;2022-07-18T13:13:39;99853.75;;;34.03;26.13
5753;BME280;2901;42.140;24.760;2022-07-18T13:16:05;99846.91;;;34.18;25.49
5753;BME280;2901;42.140;24.760;2022-07-18T13:18:30;99846.91;;;34.18;25.60
5753;BME280;2901;42.140;24.760;2022-07-18T13:20:55;99838.69;;;34.20;25.26
5753;BME280;2901;42.140;24.760;2022-07-18T13:23:21;99844.47;;;33.98;26.09
5753;BME280;2901;42.140;24.760;2022-07-18T13:25:46;99835.84;;;33.94;25.73
5753;BME280;2901;42.140;24.760;2022-07-18T13:28:12;99842.75;;;33.97;25.98
5753;BME280;2901;42.140;24.760;2022-07-18T13:30:37;99847.09;;;33.80;26.47
5753;BME280;2901;42.140;24.760;2022-07-18T13:33:06;99851.56;;;33.89;26.17
5753;BME280;2901;42.140;24.760;2022-07-18T13:35:32;99848.06;;;33.88;25.59
5753;BME280;2901;42.140;24.760;2022-07-18T13:37:58;99843.25;;;33.82;26.39
5753;BME280;2901;42.140;24.760;2022-07-18T13:40:23;99847.56;;;33.75;26.62
5753;BME280;2901;42.140;24.760;2022-07-18T13:42:49;99850.50;;;33.72;26.77
5753;BME280;2901;42.140;24.760;2022-07-18T13:45:14;99845.13;;;33.72;26.54
5753;BME280;2901;42.140;24.760;2022-07-18T13:47:41;99844.94;;;33.83;25.91
5753;BME280;2901;42.140;24.760;2022-07-18T13:50:07;99844.75;;;33.95;26.25
5753;BME280;2901;42.140;24.760;2022-07-18T13:52:33;99839.47;;;34.03;26.06
5753;BME280;2901;42.140;24.760;2022-07-18T13:54:58;99843.34;;;33.90;26.12
5753;BME280;2901;42.140;24.760;2022-07-18T13:57:24;99835.66;;;34.05;26.10
5753;BME280;2901;42.140;24.760;2022-07-18T13:59:49;99842.59;;;34.25;26.16